Time;durP1;ratioP1;P1;durP2;ratioP2;P2;SDS_P1;SDS_P2;PMS_P1;PMS_P2;Temp;Humidity;BMP_temperature;BMP_pressure;BME280_temperature;BME280_humidity;BME280_pressure;Samples;Min_cycle;Max_cycle;Signal;HPM_P1;HPM_P2
2023/05/06 00:01:21;;;;;;;1.50;1.37;;;14.10;99.90;;;;;;5098722;28;20649;-71
2023/05/06 00:03:48;;;;;;;2.20;1.50;;;14.10;99.90;;;;;;5092765;28;20692;-72
2023/05/06 00:06:15;;;;;;;2.07;1.87;;;14.10;99.90;;;;;;5102503;28;21108;-71
2023/05/06 00:08:44;;;;;;;2.63;1.10;;;14.10;99.90;;;;;;5088295;28;20631;-71
2023/05/06 00:11:11;;;;;;;1.67;1.33;;;14.10;99.90;;;;;;5097738;28;20654;-71
2023/05/06 00:13:38;;;;;;;1.60;1.50;;;14.10;99.90;;;;;;5106513;28;20678;-71
2023/05/06 00:16:05;;;;;;;1.90;1.20;;;14.10;99.90;;;;;;5093273;28;20756;-71
2023/05/06 00:18:33;;;;;;;1.80;1.70;;;14.10;99.90;;;;;;5088409;28;20725;-71
2023/05/06 00:21:00;;;;;;;1.50;1.40;;;14.10;99.90;;;;;;5088848;28;21063;-71
2023/05/06 00:23:27;;;;;;;1.53;1.43;;;14.10;99.90;;;;;;5106455;28;21243;-71
2023/05/06 00:25:54;;;;;;;1.53;1.40;;;14.10;99.90;;;;;;5106875;28;20666;-71
2023/05/06 00:28:21;;;;;;;1.60;1.50;;;14.10;99.90;;;;;;5104815;28;20939;-71
2023/05/06 00:30:47;;;;;;;2.30;1.63;;;14.00;99.90;;;;;;5056019;28;1070067;-71
2023/05/06 00:33:14;;;;;;;1.70;1.60;;;13.90;99.90;;;;;;5104422;28;20629;-71
2023/05/06 00:35:42;;;;;;;1.73;1.63;;;13.80;99.90;;;;;;5107800;28;20647;-71
2023/05/06 00:38:11;;;;;;;1.50;1.40;;;13.70;99.90;;;;;;5107519;28;20628;-71
2023/05/06 00:40:38;;;;;;;1.53;1.43;;;13.70;99.90;;;;;;5109935;28;20777;-71
2023/05/06 00:43:05;;;;;;;1.47;1.37;;;13.60;99.90;;;;;;5103815;28;20671;-71
2023/05/06 00:45:33;;;;;;;1.27;1.20;;;13.60;99.90;;;;;;5103221;28;20659;-71
2023/05/06 00:47:59;;;;;;;2.37;1.50;;;13.60;99.90;;;;;;5104083;28;20638;-71
2023/05/06 00:50:28;;;;;;;1.47;1.27;;;13.50;99.90;;;;;;5090659;28;21216;-71
2023/05/06 00:52:58;;;;;;;1.13;1.00;;;13.60;99.90;;;;;;5094535;28;20715;-71
2023/05/06 00:55:25;;;;;;;1.40;1.10;;;13.50;99.90;;;;;;5110892;28;20653;-72
2023/05/06 00:57:52;;;;;;;1.60;1.50;;;13.60;99.90;;;;;;5111857;28;20624;-71
2023/05/06 01:00:20;;;;;;;2.40;1.27;;;13.60;99.90;;;;;;5107294;28;20739;-71
2023/05/06 01:02:47;;;;;;;1.10;1.07;;;13.60;99.90;;;;;;5109918;28;20711;-71
2023/05/06 01:05:14;;;;;;;1.10;0.97;;;13.50;99.90;;;;;;5107870;28;20628;-71
2023/05/06 01:07:46;;;;;;;1.40;0.93;;;13.40;99.90;;;;;;5097550;28;20723;-71
2023/05/06 01:10:21;;;;;;;1.83;1.70;;;13.50;99.90;;;;;;5090636;28;20632;-71
2023/05/06 01:12:53;;;;;;;1.43;1.10;;;13.50;99.90;;;;;;5100368;28;20627;-72
2023/05/06 01:15:28;;;;;;;1.37;0.97;;;13.60;99.90;;;;;;5097271;28;21050;-71
2023/05/06 01:18:00;;;;;;;1.37;1.20;;;13.50;99.90;;;;;;5092522;28;20672;-71
2023/05/06 01:20:29;;;;;;;1.60;1.50;;;13.50;99.90;;;;;;5097614;28;21014;-71
2023/05/06 01:22:57;;;;;;;1.67;1.43;;;13.50;99.90;;;;;;5100054;28;20681;-72
2023/05/06 01:25:29;;;;;;;1.87;1.77;;;13.40;99.90;;;;;;5111082;28;20717;-71
2023/05/06 01:27:56;;;;;;;2.83;1.90;;;13.30;99.90;;;;;;5100924;28;21525;-71
2023/05/06 01:30:29;;;;;;;1.60;1.23;;;13.40;99.90;;;;;;5094343;28;20620;-72
2023/05/06 01:33:04;;;;;;;2.20;1.90;;;13.40;99.90;;;;;;5103980;28;20716;-71
2023/05/06 01:35:40;;;;;;;1.70;1.07;;;13.40;99.90;;;;;;5110333;28;20648;-71
2023/05/06 01:38:15;;;;;;;1.50;1.40;;;13.40;99.90;;;;;;5099362;28;20634;-71
2023/05/06 01:40:48;;;;;;;2.20;1.30;;;13.40;99.90;;;;;;5091957;28;20656;-71
2023/05/06 01:43:18;;;;;;;1.93;1.40;;;13.40;99.90;;;;;;5095956;28;20661;-72
2023/05/06 01:45:52;;;;;;;1.37;1.27;;;13.50;99.90;;;;;;5090527;28;20678;-72
2023/05/06 01:48:22;;;;;;;1.50;1.40;;;13.40;99.90;;;;;;5090662;28;20628;-71
2023/05/06 01:50:50;;;;;;;1.57;1.13;;;13.40;99.90;;;;;;5105885;28;20694;-71
2023/05/06 01:53:17;;;;;;;1.60;1.50;;;13.40;99.90;;;;;;5101921;28;20620;-71
2023/05/06 01:55:46;;;;;;;1.17;0.87;;;13.40;99.90;;;;;;5090113;28;20643;-72
2023/05/06 01:58:14;;;;;;;1.87;1.70;;;13.50;99.90;;;;;;5091975;28;20634;-71
2023/05/06 02:00:42;;;;;;;1.60;1.50;;;13.50;99.90;;;;;;5094301;28;20685;-71
2023/05/06 02:03:10;;;;;;;2.20;1.60;;;13.40;99.90;;;;;;5108303;28;20762;-71
2023/05/06 02:05:37;;;;;;;1.70;1.60;;;13.40;99.90;;;;;;5097533;28;20643;-71
2023/05/06 02:08:04;;;;;;;1.40;1.23;;;13.40;99.90;;;;;;5089990;28;21188;-71
2023/05/06 02:10:31;;;;;;;1.37;1.27;;;13.30;99.90;;;;;;5089398;28;20662;-71
2023/05/06 02:13:00;;;;;;;1.57;1.47;;;13.30;99.90;;;;;;5103845;28;20988;-72
2023/05/06 02:15:27;;;;;;;1.70;1.60;;;13.40;99.90;;;;;;5109634;28;20655;-71
2023/05/06 02:17:54;;;;;;;1.07;1.07;;;13.30;99.90;;;;;;5108439;28;21317;-71
2023/05/06 02:20:21;;;;;;;1.67;1.33;;;13.30;99.90;;;;;;5104572;28;21068;-71
2023/05/06 02:22:47;;;;;;;1.40;1.30;;;13.30;99.90;;;;;;5106769;28;21371;-71
2023/05/06 02:25:15;;;;;;;3.37;1.70;;;13.30;99.90;;;;;;5089793;28;20639;-71
2023/05/06 02:27:43;;;;;;;1.90;1.80;;;13.30;99.90;;;;;;5089908;28;20637;-71
2023/05/06 02:30:13;;;;;;;1.97;1.60;;;13.30;99.90;;;;;;5109338;28;20989;-71
2023/05/06 02:32:41;;;;;;;1.73;1.30;;;13.30;99.90;;;;;;5109805;28;20623;-71
2023/05/06 02:35:09;;;;;;;2.10;1.67;;;13.30;99.90;;;;;;5088639;28;20636;-71
2023/05/06 02:37:36;;;;;;;1.90;1.50;;;13.30;99.90;;;;;;5089201;28;20624;-71
2023/05/06 02:40:05;;;;;;;1.90;1.80;;;13.40;99.90;;;;;;5089078;28;21019;-71
2023/05/06 02:42:33;;;;;;;1.80;1.70;;;13.40;99.90;;;;;;5105767;28;20642;-71
2023/05/06 02:45:00;;;;;;;1.80;1.70;;;13.30;99.90;;;;;;5109487;28;20620;-71
2023/05/06 02:47:29;;;;;;;2.40;2.20;;;13.30;99.90;;;;;;5109751;28;20695;-71
2023/05/06 02:49:57;;;;;;;1.70;1.60;;;13.30;99.90;;;;;;5088362;28;21210;-71
2023/05/06 02:52:25;;;;;;;2.30;1.43;;;13.30;99.90;;;;;;5090841;28;20705;-71
2023/05/06 02:54:53;;;;;;;1.50;1.40;;;13.30;99.90;;;;;;5107433;28;21025;-71
2023/05/06 02:57:21;;;;;;;2.23;1.67;;;13.20;99.90;;;;;;5089379;28;21001;-72
2023/05/06 02:59:49;;;;;;;1.63;1.53;;;13.20;99.90;;;;;;5095679;28;20644;-71
2023/05/06 03:02:15;;;;;;;1.57;1.10;;;13.10;99.90;;;;;;5095113;28;20667;-71
2023/05/06 03:04:44;;;;;;;1.67;1.50;;;13.10;99.90;;;;;;5097183;28;20680;-71
2023/05/06 03:07:12;;;;;;;1.40;1.30;;;13.10;99.90;;;;;;5089371;28;20641;-71
2023/05/06 03:09:40;;;;;;;1.43;1.33;;;13.10;99.90;;;;;;5088520;28;20685;-71
2023/05/06 03:12:08;;;;;;;2.40;1.50;;;13.00;99.90;;;;;;5095213;28;20708;-71
2023/05/06 03:14:35;;;;;;;1.53;1.20;;;13.00;99.90;;;;;;5108990;28;20840;-71
2023/05/06 03:17:02;;;;;;;1.50;1.40;;;13.00;99.90;;;;;;5108933;28;20643;-71
2023/05/06 03:19:29;;;;;;;1.40;1.30;;;13.00;99.90;;;;;;5092627;28;20647;-71
2023/05/06 03:21:57;;;;;;;2.47;1.70;;;13.00;99.90;;;;;;5088442;28;20659;-71
2023/05/06 03:24:24;;;;;;;1.53;1.43;;;13.00;99.90;;;;;;5104041;28;20665;-71
2023/05/06 03:26:51;;;;;;;2.23;2.00;;;13.10;99.90;;;;;;5106710;28;20736;-71
2023/05/06 03:29:17;;;;;;;1.87;1.77;;;13.10;99.90;;;;;;5087928;28;20738;-71
2023/05/06 03:31:44;;;;;;;2.20;2.00;;;13.00;99.90;;;;;;5105766;28;20666;-71
2023/05/06 03:34:11;;;;;;;4.33;2.07;;;13.00;99.90;;;;;;5103335;28;20911;-71
2023/05/06 03:36:38;;;;;;;2.50;1.47;;;13.00;99.90;;;;;;5108888;28;20711;-71
2023/05/06 03:39:06;;;;;;;2.17;1.97;;;12.90;99.90;;;;;;5107976;28;20610;-71
2023/05/06 03:41:33;;;;;;;2.00;1.90;;;12.90;99.90;;;;;;5105424;28;20640;-71
2023/05/06 03:44:00;;;;;;;2.10;1.90;;;12.90;99.90;;;;;;5094813;28;20801;-71
2023/05/06 03:46:26;;;;;;;2.23;2.03;;;12.80;99.90;;;;;;5088369;28;20744;-71
2023/05/06 03:48:53;;;;;;;2.53;2.20;;;12.80;99.90;;;;;;5089895;28;20742;-71
2023/05/06 03:51:20;;;;;;;2.67;1.67;;;12.80;99.90;;;;;;5086706;28;20666;-71
2023/05/06 03:53:48;;;;;;;2.47;2.13;;;12.80;99.90;;;;;;5102224;28;20733;-71
2023/05/06 03:56:17;;;;;;;2.40;2.20;;;12.80;99.90;;;;;;5089879;28;21231;-71
2023/05/06 03:58:43;;;;;;;2.05;1.60;;;12.70;99.90;;;;;;5105870;28;21223;-71
2023/05/06 04:01:10;;;;;;;3.40;2.40;;;12.70;99.90;;;;;;5090815;28;20645;-71
2023/05/06 04:03:37;;;;;;;1.80;1.70;;;12.70;99.90;;;;;;5092669;28;20658;-71
2023/05/06 04:06:05;;;;;;;2.40;1.70;;;12.60;99.90;;;;;;5094026;28;20662;-71
2023/05/06 04:08:31;;;;;;;3.00;2.00;;;12.60;99.90;;;;;;5101496;28;21066;-71
2023/05/06 04:11:03;;;;;;;3.87;1.97;;;12.50;99.90;;;;;;5095226;28;20640;-71
2023/05/06 04:13:31;;;;;;;1.73;1.60;;;12.50;99.90;;;;;;5088000;28;20633;-71
2023/05/06 04:15:58;;;;;;;2.47;1.70;;;12.40;99.90;;;;;;5087667;28;20669;-72
2023/05/06 04:18:25;;;;;;;2.10;1.73;;;12.40;99.90;;;;;;5092315;28;20623;-71
2023/05/06 04:20:51;;;;;;;1.93;1.77;;;12.40;99.90;;;;;;5087022;28;20654;-71
2023/05/06 04:23:18;;;;;;;2.67;2.00;;;12.40;99.90;;;;;;5096091;28;20629;-71
2023/05/06 04:25:47;;;;;;;2.40;2.20;;;12.30;99.90;;;;;;5100100;28;20693;-71
2023/05/06 04:28:15;;;;;;;1.87;1.77;;;12.30;99.90;;;;;;5093147;28;20635;-72
2023/05/06 04:30:43;;;;;;;1.47;1.37;;;12.30;99.90;;;;;;5106612;28;20649;-71
2023/05/06 04:33:10;;;;;;;2.30;2.10;;;12.30;99.90;;;;;;5106116;28;20637;-71
2023/05/06 04:35:37;;;;;;;4.13;2.70;;;12.20;99.90;;;;;;5103923;28;21032;-71
2023/05/06 04:38:04;;;;;;;1.57;1.37;;;12.20;99.90;;;;;;5087145;28;20639;-72
2023/05/06 04:40:33;;;;;;;2.60;1.90;;;12.20;99.90;;;;;;5087161;28;20653;-71
2023/05/06 04:43:01;;;;;;;2.87;2.30;;;12.10;99.90;;;;;;5102982;28;20623;-71
2023/05/06 04:45:28;;;;;;;2.80;2.03;;;12.10;99.90;;;;;;5087243;28;21269;-71
2023/05/06 04:47:56;;;;;;;2.83;2.10;;;12.10;99.90;;;;;;5091599;28;20653;-71
2023/05/06 04:50:23;;;;;;;2.03;1.83;;;12.20;99.90;;;;;;5104212;28;20648;-71
2023/05/06 04:52:50;;;;;;;2.70;1.40;;;12.20;99.90;;;;;;5104256;28;21177;-71
2023/05/06 04:55:17;;;;;;;2.13;1.97;;;12.30;99.90;;;;;;5087262;28;20773;-71
2023/05/06 04:57:43;;;;;;;1.70;1.60;;;12.30;99.90;;;;;;5087478;28;20631;-71
2023/05/06 05:00:11;;;;;;;3.00;2.70;;;12.30;99.90;;;;;;5096603;28;20615;-71
2023/05/06 05:02:37;;;;;;;2.20;2.00;;;12.40;99.90;;;;;;5091844;28;21185;-71
2023/05/06 05:05:06;;;;;;;2.10;1.83;;;12.50;99.90;;;;;;5097819;28;20645;-71
2023/05/06 05:07:33;;;;;;;2.03;1.83;;;12.60;99.90;;;;;;5106039;28;20661;-72
2023/05/06 05:10:00;;;;;;;1.83;1.73;;;12.60;99.90;;;;;;5106283;28;20636;-71
2023/05/06 05:12:27;;;;;;;3.50;2.37;;;12.60;99.90;;;;;;5103635;28;20666;-71
2023/05/06 05:14:53;;;;;;;2.50;2.30;;;12.70;99.90;;;;;;5107547;28;21244;-71
2023/05/06 05:17:20;;;;;;;2.13;1.87;;;12.70;99.90;;;;;;5107232;28;20651;-73
2023/05/06 05:19:47;;;;;;;2.70;2.10;;;12.70;99.90;;;;;;5086294;28;20642;-72
2023/05/06 05:22:15;;;;;;;3.77;2.30;;;12.70;99.90;;;;;;5087303;28;20660;-70
2023/05/06 05:24:42;;;;;;;3.30;3.00;;;12.70;99.90;;;;;;5103914;28;20744;-72
2023/05/06 05:27:09;;;;;;;2.30;2.07;;;12.80;99.90;;;;;;5099649;28;20577;-72
2023/05/06 05:29:36;;;;;;;3.37;2.30;;;12.80;99.90;;;;;;5103896;28;20615;-71
2023/05/06 05:32:03;;;;;;;1.87;1.70;;;13.00;99.90;;;;;;5093710;28;20666;-72
2023/05/06 05:34:30;;;;;;;2.40;2.17;;;13.00;99.90;;;;;;5110703;28;20754;-71
2023/05/06 05:36:57;;;;;;;2.77;2.53;;;13.10;99.90;;;;;;5091033;28;20666;-72
2023/05/06 05:39:25;;;;;;;2.10;1.83;;;13.10;99.90;;;;;;5090313;28;20634;-72
2023/05/06 05:41:52;;;;;;;2.60;2.40;;;13.30;99.90;;;;;;5096967;28;20659;-72
2023/05/06 05:44:18;;;;;;;2.17;1.93;;;13.30;99.90;;;;;;5096945;28;20737;-72
2023/05/06 05:46:45;;;;;;;1.63;1.53;;;13.30;99.90;;;;;;5089752;28;20651;-75
2023/05/06 05:49:12;;;;;;;3.00;2.55;;;13.50;99.90;;;;;;5089777;28;20745;-70
2023/05/06 05:51:39;;;;;;;1.87;1.77;;;13.60;99.90;;;;;;5107708;28;20291;-70
2023/05/06 05:54:05;;;;;;;2.90;2.47;;;13.60;99.90;;;;;;5091620;28;20667;-71
2023/05/06 05:56:34;;;;;;;2.50;2.20;;;13.60;99.90;;;;;;5098746;28;21230;-71
2023/05/06 05:59:00;;;;;;;1.90;1.80;;;13.60;99.90;;;;;;5099392;28;20723;-71
2023/05/06 06:01:27;;;;;;;2.40;1.87;;;13.60;99.90;;;;;;5109360;27;20657;-71
2023/05/06 06:03:54;;;;;;;2.23;2.03;;;13.70;99.90;;;;;;5095447;28;21191;-71
2023/05/06 06:06:22;;;;;;;3.20;2.57;;;13.70;99.90;;;;;;5089844;28;21253;-70
2023/05/06 06:08:49;;;;;;;2.97;2.60;;;13.90;99.90;;;;;;5090175;28;20647;-71
2023/05/06 06:11:16;;;;;;;2.73;2.37;;;14.00;99.90;;;;;;5105310;28;20659;-73
2023/05/06 06:13:44;;;;;;;2.33;1.80;;;13.90;99.90;;;;;;5105358;28;20631;-68
2023/05/06 06:16:11;;;;;;;2.00;1.90;;;13.90;99.90;;;;;;5107987;27;20650;-68
2023/05/06 06:18:37;;;;;;;3.83;2.13;;;13.90;99.90;;;;;;5119586;27;20689;-67
2023/05/06 06:21:05;;;;;;;1.80;1.70;;;14.00;99.90;;;;;;5118580;27;20643;-67
2023/05/06 06:23:31;;;;;;;2.30;2.10;;;14.00;99.90;;;;;;5118799;27;20626;-67
2023/05/06 06:25:58;;;;;;;2.50;1.50;;;13.90;99.90;;;;;;5120437;27;20655;-66
2023/05/06 06:28:25;;;;;;;2.60;1.13;;;13.90;99.90;;;;;;5103375;28;20615;-67
2023/05/06 06:30:53;;;;;;;1.27;1.27;;;14.00;99.90;;;;;;5109550;28;21101;-66
2023/05/06 06:33:20;;;;;;;1.00;0.90;;;14.00;99.90;;;;;;5094469;28;20627;-67
2023/05/06 06:35:47;;;;;;;1.00;0.90;;;14.00;99.90;;;;;;5089010;28;20679;-67
2023/05/06 06:38:13;;;;;;;1.43;1.00;;;14.00;99.90;;;;;;5100928;28;21207;-67
2023/05/06 06:40:40;;;;;;;2.30;1.40;;;14.10;99.90;;;;;;5108434;28;20653;-67
2023/05/06 06:43:07;;;;;;;1.03;1.03;;;14.10;99.90;;;;;;5108535;27;20945;-68
2023/05/06 06:45:34;;;;;;;1.30;1.20;;;14.20;99.90;;;;;;5109739;28;21230;-68
2023/05/06 06:48:02;;;;;;;1.40;1.30;;;14.30;99.90;;;;;;5102139;27;21002;-70
2023/05/06 06:50:29;;;;;;;1.27;1.17;;;14.30;99.90;;;;;;5106400;28;20655;-69
2023/05/06 06:52:55;;;;;;;1.37;1.13;;;14.20;99.90;;;;;;5107480;28;20635;-69
2023/05/06 06:55:22;;;;;;;0.70;0.70;;;14.40;99.90;;;;;;5107795;28;20657;-70
2023/05/06 06:57:49;;;;;;;1.63;1.20;;;14.60;99.90;;;;;;5106628;28;20718;-70
2023/05/06 07:00:16;;;;;;;1.30;0.83;;;14.70;99.90;;;;;;5103576;28;20633;-69
2023/05/06 07:02:45;;;;;;;1.20;1.10;;;14.80;99.90;;;;;;5102558;27;21192;-69
2023/05/06 07:05:13;;;;;;;1.10;1.00;;;14.70;99.90;;;;;;5107770;27;20727;-69
2023/05/06 07:07:40;;;;;;;0.93;0.73;;;14.60;99.90;;;;;;5116464;27;20623;-69
2023/05/06 07:10:08;;;;;;;1.57;1.10;;;14.40;99.90;;;;;;5110458;27;20742;-69
2023/05/06 07:12:35;;;;;;;1.27;1.17;;;14.80;99.90;;;;;;5095577;27;20635;-70
2023/05/06 07:15:05;;;;;;;0.63;0.63;;;14.90;99.90;;;;;;5105404;28;20689;-69
2023/05/06 07:17:32;;;;;;;0.90;0.70;;;15.00;99.90;;;;;;5109075;27;20640;-70
2023/05/06 07:19:59;;;;;;;1.77;1.50;;;15.60;99.90;;;;;;5108539;28;20663;-69
2023/05/06 07:22:28;;;;;;;2.53;1.70;;;15.50;99.90;;;;;;5109081;28;20705;-69
2023/05/06 07:24:55;;;;;;;2.07;0.90;;;15.30;99.90;;;;;;5108802;28;20621;-70
2023/05/06 07:27:22;;;;;;;0.70;0.70;;;15.10;99.90;;;;;;5108901;28;20994;-69
2023/05/06 07:29:49;;;;;;;1.20;1.10;;;15.00;99.90;;;;;;5108220;28;21249;-69
2023/05/06 07:32:16;;;;;;;0.50;0.50;;;14.90;99.90;;;;;;5108555;28;20699;-69
2023/05/06 07:34:43;;;;;;;0.60;0.60;;;14.60;99.90;;;;;;5108986;28;20660;-69
2023/05/06 07:37:10;;;;;;;2.43;1.37;;;14.90;99.90;;;;;;5108153;28;20701;-69
2023/05/06 07:39:38;;;;;;;2.10;0.80;;;15.20;99.90;;;;;;5111507;27;20616;-68
2023/05/06 07:42:06;;;;;;;2.10;1.50;;;15.40;99.90;;;;;;5099743;27;20798;-70
2023/05/06 07:44:33;;;;;;;1.50;1.40;;;15.70;99.90;;;;;;5106426;27;21186;-70
2023/05/06 07:46:59;;;;;;;1.27;0.90;;;15.80;99.90;;;;;;5107832;28;21191;-70
2023/05/06 07:49:27;;;;;;;1.10;1.00;;;15.60;99.90;;;;;;5107467;28;21146;-70
2023/05/06 07:51:54;;;;;;;0.87;0.87;;;15.80;99.90;;;;;;5107215;28;20656;-70
2023/05/06 07:54:21;;;;;;;1.27;1.13;;;15.80;99.90;;;;;;5108222;28;20629;-70
2023/05/06 07:56:49;;;;;;;0.73;0.73;;;15.50;99.90;;;;;;5108222;28;20648;-70
2023/05/06 07:59:16;;;;;;;1.00;0.90;;;15.40;99.90;;;;;;5107978;28;21247;-70
2023/05/06 08:01:43;;;;;;;0.90;0.90;;;15.50;99.90;;;;;;5104252;27;20642;-70
2023/05/06 08:04:09;;;;;;;1.13;1.03;;;15.50;99.90;;;;;;5105278;28;21301;-70
2023/05/06 08:06:36;;;;;;;1.10;0.80;;;15.80;99.90;;;;;;5105319;28;20646;-70
2023/05/06 08:09:03;;;;;;;0.97;0.83;;;16.00;99.90;;;;;;5104921;28;20634;-70
2023/05/06 08:11:30;;;;;;;0.90;0.73;;;16.40;99.80;;;;;;5107326;28;20685;-70
2023/05/06 08:13:58;;;;;;;1.17;1.07;;;16.30;99.90;;;;;;5100265;28;20630;-70
2023/05/06 08:16:25;;;;;;;1.53;0.70;;;16.00;99.90;;;;;;5097524;28;20676;-70
2023/05/06 08:18:52;;;;;;;0.80;0.70;;;15.80;99.90;;;;;;5103794;28;20624;-70
2023/05/06 08:21:18;;;;;;;0.90;0.90;;;16.10;99.90;;;;;;5107702;28;20661;-70
2023/05/06 08:23:45;;;;;;;1.30;0.90;;;16.40;99.90;;;;;;5106245;28;20621;-70
2023/05/06 08:26:12;;;;;;;0.90;0.77;;;16.50;99.90;;;;;;5108109;28;20667;-70
2023/05/06 08:28:39;;;;;;;1.30;1.07;;;16.60;99.90;;;;;;5108100;28;20628;-70
2023/05/06 08:31:07;;;;;;;1.43;1.33;;;17.00;98.60;;;;;;5106822;28;21082;-71
2023/05/06 08:33:34;;;;;;;1.13;0.77;;;17.30;98.60;;;;;;5106984;28;20626;-71
2023/05/06 08:36:00;;;;;;;1.23;1.13;;;17.40;97.60;;;;;;5108109;28;20670;-70
2023/05/06 08:38:27;;;;;;;1.47;0.90;;;17.20;98.40;;;;;;5108055;28;20629;-70
2023/05/06 08:40:54;;;;;;;0.70;0.70;;;16.90;98.10;;;;;;5107085;28;20668;-70
2023/05/06 08:43:23;;;;;;;2.17;1.83;;;17.20;97.60;;;;;;5107740;28;20630;-70
2023/05/06 08:45:50;;;;;;;2.00;0.90;;;17.30;97.20;;;;;;5107626;28;20656;-71
2023/05/06 08:48:18;;;;;;;0.80;0.80;;;17.60;96.50;;;;;;5107361;28;20627;-70
2023/05/06 08:50:47;;;;;;;0.50;0.50;;;17.70;96.20;;;;;;5106172;28;20658;-70
2023/05/06 08:53:15;;;;;;;0.77;0.70;;;18.10;95.60;;;;;;5106759;28;20623;-71
2023/05/06 08:55:43;;;;;;;0.60;0.50;;;18.10;95.00;;;;;;5106452;28;21023;-71
2023/05/06 08:58:13;;;;;;;0.57;0.57;;;17.80;95.40;;;;;;5107805;28;20624;-71
2023/05/06 09:00:40;;;;;;;0.80;0.80;;;17.80;95.30;;;;;;5108441;28;20647;-70
2023/05/06 09:03:06;;;;;;;0.60;0.60;;;17.50;95.60;;;;;;5103315;27;21005;-70
2023/05/06 09:05:34;;;;;;;0.60;0.60;;;17.80;95.70;;;;;;5091350;28;21000;-71
2023/05/06 09:08:01;;;;;;;1.03;0.93;;;18.00;95.90;;;;;;5091742;28;20730;-68
2023/05/06 09:10:32;;;;;;;0.77;0.77;;;17.90;94.50;;;;;;5099957;28;20683;-70
2023/05/06 09:12:58;;;;;;;0.73;0.73;;;17.80;94.10;;;;;;5111284;28;20855;-70
2023/05/06 09:15:26;;;;;;;0.67;0.60;;;18.10;94.80;;;;;;5110493;28;21290;-71
2023/05/06 09:17:55;;;;;;;0.80;0.80;;;18.40;94.30;;;;;;5111109;28;20634;-71
2023/05/06 09:20:21;;;;;;;0.70;0.70;;;18.50;93.90;;;;;;5110440;28;20619;-70
2023/05/06 09:22:50;;;;;;;0.63;0.63;;;18.10;93.50;;;;;;5111706;28;21152;-70
2023/05/06 09:25:17;;;;;;;1.80;0.83;;;18.30;94.40;;;;;;5111000;28;20624;-70
2023/05/06 09:27:44;;;;;;;0.70;0.70;;;18.50;93.70;;;;;;5110148;28;20612;-71
2023/05/06 09:30:12;;;;;;;1.00;1.00;;;18.60;94.30;;;;;;5110862;28;20620;-70
2023/05/06 09:32:39;;;;;;;2.37;2.17;;;18.40;93.60;;;;;;5110947;27;21160;-70
2023/05/06 09:35:07;;;;;;;1.27;1.07;;;18.60;94.80;;;;;;5111177;27;20648;-70
2023/05/06 09:37:34;;;;;;;0.80;0.80;;;18.60;94.50;;;;;;5111161;28;20620;-71
2023/05/06 09:40:02;;;;;;;0.60;0.60;;;18.60;92.90;;;;;;5108717;27;21066;-70
2023/05/06 09:42:30;;;;;;;0.87;0.87;;;18.20;93.20;;;;;;5109158;28;20902;-70
2023/05/06 09:44:58;;;;;;;0.70;0.70;;;18.00;92.60;;;;;;5111081;27;20619;-71
2023/05/06 09:47:26;;;;;;;1.37;0.80;;;17.70;93.40;;;;;;5109958;28;20681;-70
2023/05/06 09:49:58;;;;;;;0.80;0.80;;;17.50;94.00;;;;;;5110100;28;20633;-70
2023/05/06 09:52:26;;;;;;;0.80;0.80;;;17.30;94.10;;;;;;5110797;28;21306;-69
2023/05/06 09:54:53;;;;;;;0.63;0.63;;;17.40;94.70;;;;;;5107721;28;20620;-70
2023/05/06 09:57:22;;;;;;;0.80;0.80;;;17.50;95.30;;;;;;5090001;28;20694;-70
2023/05/06 09:59:50;;;;;;;3.00;1.20;;;17.60;94.70;;;;;;5104492;28;20627;-69
2023/05/06 10:02:20;;;;;;;0.97;0.97;;;17.70;94.20;;;;;;5109339;28;20654;-70
2023/05/06 10:04:48;;;;;;;1.10;1.10;;;17.70;94.40;;;;;;5099098;27;20715;-69
2023/05/06 10:07:21;;;;;;;0.67;0.67;;;17.80;94.30;;;;;;5110168;28;20652;-69
2023/05/06 10:09:50;;;;;;;1.30;1.20;;;17.80;94.00;;;;;;5110074;28;21031;-68
2023/05/06 10:12:17;;;;;;;0.90;0.90;;;18.00;93.40;;;;;;5109884;28;21227;-69
2023/05/06 10:14:45;;;;;;;1.50;1.40;;;18.20;93.00;;;;;;5110877;28;20719;-69
2023/05/06 10:17:12;;;;;;;1.87;0.93;;;18.40;92.90;;;;;;5108428;28;21203;-70
2023/05/06 10:19:40;;;;;;;1.40;1.30;;;18.60;92.80;;;;;;5109571;28;20628;-69
2023/05/06 10:22:16;;;;;;;1.20;1.10;;;18.70;91.60;;;;;;5103886;28;21010;-70
2023/05/06 10:24:51;;;;;;;40.57;25.97;;;19.10;91.30;;;;;;5088440;28;20624;-69
2023/05/06 10:27:21;;;;;;;8.53;5.30;;;19.30;92.00;;;;;;5093583;28;20702;-70
2023/05/06 10:29:53;;;;;;;2.30;1.60;;;19.60;91.70;;;;;;5102125;28;21071;-68
2023/05/06 10:32:20;;;;;;;1.30;1.20;;;19.90;90.90;;;;;;5100214;27;20690;-68
2023/05/06 10:34:54;;;;;;;1.53;1.43;;;20.10;90.80;;;;;;5088975;28;20620;-68
2023/05/06 10:37:24;;;;;;;2.33;1.07;;;20.30;90.20;;;;;;5089676;28;20680;-69
2023/05/06 10:39:53;;;;;;;1.00;0.93;;;20.10;87.90;;;;;;5106295;28;20963;-69
2023/05/06 10:42:19;;;;;;;35.10;23.63;;;19.80;88.70;;;;;;5100975;28;20659;-68
2023/05/06 10:45:02;;;;;;;4.50;3.90;;;19.20;89.30;;;;;;5087573;28;20644;-68
2023/05/06 10:47:52;;;;;;;1.90;1.77;;;19.10;91.80;;;;;;5088023;28;20720;-68
2023/05/06 10:50:20;;;;;;;0.93;0.93;;;19.50;92.10;;;;;;5087020;28;20727;-68
2023/05/06 10:52:50;;;;;;;0.90;0.90;;;19.70;90.00;;;;;;5088190;28;20628;-68
2023/05/06 10:55:28;;;;;;;0.93;0.90;;;20.00;89.10;;;;;;5087819;28;20635;-68
2023/05/06 10:57:56;;;;;;;0.70;0.70;;;20.30;90.00;;;;;;5089357;28;20982;-68
2023/05/06 11:00:25;;;;;;;3.40;3.10;;;20.40;87.00;;;;;;5108021;28;21037;-68
2023/05/06 11:02:56;;;;;;;1.80;1.70;;;20.30;83.50;;;;;;5097926;28;20990;-68
2023/05/06 11:05:24;;;;;;;0.90;0.90;;;20.40;86.90;;;;;;5088873;28;22253;-68
2023/05/06 11:07:52;;;;;;;3.57;2.27;;;20.60;85.30;;;;;;5089242;28;20625;-68
2023/05/06 11:10:32;;;;;;;1.33;1.27;;;20.90;86.10;;;;;;5096585;28;20628;-69
2023/05/06 11:13:18;;;;;;;1.13;1.07;;;21.10;85.90;;;;;;5097537;28;20674;-69
2023/05/06 11:15:49;;;;;;;1.10;1.00;;;21.40;84.10;;;;;;5088589;28;21025;-69
2023/05/06 11:18:44;;;;;;;0.80;0.80;;;21.60;84.20;;;;;;5088453;28;21190;-69
2023/05/06 11:21:36;;;;;;;1.30;1.20;;;21.60;81.80;;;;;;5088355;28;21211;-69
2023/05/06 11:24:08;;;;;;;1.00;0.90;;;21.80;82.50;;;;;;5088832;28;21004;-69
2023/05/06 11:26:35;;;;;;;1.10;1.07;;;21.40;80.20;;;;;;5096376;28;20644;-69
2023/05/06 11:29:03;;;;;;;1.00;0.90;;;21.20;80.50;;;;;;5109030;28;20724;-68
2023/05/06 11:31:41;;;;;;;1.00;1.00;;;20.90;79.40;;;;;;5108187;28;21095;-68
2023/05/06 11:34:12;;;;;;;6.90;1.50;;;20.60;82.70;;;;;;5092624;28;20627;-69
2023/05/06 11:36:50;;;;;;;1.07;1.03;;;20.30;83.30;;;;;;5108657;28;20732;-68
2023/05/06 11:39:17;;;;;;;3.00;1.50;;;20.40;81.30;;;;;;5108490;28;20642;-68
2023/05/06 11:41:44;;;;;;;1.10;1.10;;;20.30;84.50;;;;;;5107604;28;20743;-69
2023/05/06 11:44:13;;;;;;;1.50;1.40;;;20.20;83.00;;;;;;5088304;28;21164;-69
2023/05/06 11:46:43;;;;;;;1.20;1.20;;;20.20;85.00;;;;;;5088131;28;21288;-68
2023/05/06 11:49:14;;;;;;;1.33;1.10;;;20.00;86.00;;;;;;5088247;28;20621;-68
2023/05/06 11:51:41;;;;;;;1.40;1.30;;;20.70;84.60;;;;;;5087425;28;21262;-68
2023/05/06 11:54:10;;;;;;;1.30;1.20;;;21.00;82.20;;;;;;5109029;28;20631;-68
2023/05/06 11:56:47;;;;;;;1.30;1.07;;;21.20;80.70;;;;;;5108308;28;21029;-68
2023/05/06 11:59:14;;;;;;;1.63;1.53;;;21.10;81.90;;;;;;5108702;28;20626;-69
2023/05/06 12:01:44;;;;;;;1.90;1.77;;;21.00;80.40;;;;;;5107464;28;20648;-68
2023/05/06 12:04:11;;;;;;;1.13;1.03;;;21.10;80.70;;;;;;5087966;28;20998;-68
2023/05/06 12:06:38;;;;;;;2.30;1.67;;;21.40;81.60;;;;;;5087792;28;20643;-69
2023/05/06 12:09:07;;;;;;;1.10;1.10;;;21.90;79.50;;;;;;5088432;28;20981;-68
2023/05/06 12:11:36;;;;;;;1.33;1.23;;;21.90;77.60;;;;;;5105945;28;20965;-69
2023/05/06 12:14:04;;;;;;;1.23;1.17;;;21.80;77.60;;;;;;5088916;28;21126;-68
2023/05/06 12:16:32;;;;;;;1.50;1.40;;;21.90;78.40;;;;;;5087136;28;20763;-68
2023/05/06 12:19:00;;;;;;;2.03;1.43;;;22.20;76.70;;;;;;5087920;28;20625;-68
2023/05/06 12:21:27;;;;;;;1.57;1.47;;;21.80;78.50;;;;;;5087360;28;20651;-68
2023/05/06 12:23:55;;;;;;;3.30;1.57;;;21.50;78.50;;;;;;5087889;28;20621;-68
2023/05/06 12:26:22;;;;;;;0.90;0.90;;;21.70;78.20;;;;;;5093680;28;20647;-68
2023/05/06 12:29:06;;;;;;;1.50;1.40;;;22.70;82.90;;;;;;5107494;28;20715;-69
2023/05/06 12:31:33;;;;;;;2.20;1.60;;;24.30;75.80;;;;;;5107123;28;21236;-69
2023/05/06 12:34:01;;;;;;;2.00;1.90;;;25.50;74.10;;;;;;5108804;28;20637;-69
2023/05/06 12:36:28;;;;;;;1.23;1.13;;;26.50;69.20;;;;;;5112369;28;20659;-69
2023/05/06 12:38:56;;;;;;;1.40;1.30;;;26.40;66.40;;;;;;5112245;28;20626;-69
2023/05/06 12:41:24;;;;;;;1.33;1.17;;;26.00;63.50;;;;;;5110542;28;20648;-68
2023/05/06 12:43:52;;;;;;;1.03;1.03;;;26.20;62.40;;;;;;5095253;28;20625;-69
2023/05/06 12:46:19;;;;;;;1.10;1.10;;;27.00;60.40;;;;;;5091766;28;20640;-69
2023/05/06 12:48:59;;;;;;;1.37;1.27;;;27.80;58.80;;;;;;5091923;28;20656;-69
2023/05/06 12:51:29;;;;;;;4.73;1.00;;;28.60;57.90;;;;;;5090930;28;20659;-69